Time,TemperatureF,DewpointF,PressureIn,WindDirection,WindDirectionDegrees,WindSpeedMPH,WindSpeedGustMPH,Humidity,HourlyPrecipIn,Conditions,Clouds,dailyrainin,SoftwareType,DateUTC
2013-01-24 00:03:00,58.0,55.0,30.26,NNW,340,0.0,0.0,89,0.00,,,0.00,,2013-01-24 05:03:00,
2013-01-24 00:12:00,58.0,55.0,30.26,NNW,340,0.0,0.0,89,0.00,,,0.00,,2013-01-24 05:12:00,
2013-01-24 00:22:00,58.0,55.0,30.26,SSW,197,0.0,0.0,90,0.00,,,0.00,,2013-01-24 05:22:00,
2013-01-24 00:33:00,58.0,55.0,30.26,WNW,287,0.0,0.0,90,0.00,,,0.00,,2013-01-24 05:33:00,
2013-01-24 00:42:00,58.0,55.0,30.26,WNW,287,0.0,0.0,90,0.00,,,0.00,,2013-01-24 05:42:00,
2013-01-24 00:53:00,57.0,54.0,30.25,NNW,331,1.0,3.0,90,0.00,,,0.00,,2013-01-24 05:53:00,
2013-01-24 01:02:00,57.0,54.0,30.24,WNW,302,0.0,2.0,90,0.00,,,0.00,,2013-01-24 06:02:00,
2013-01-24 01:12:00,57.0,54.0,30.24,WNW,302,0.0,2.0,90,0.00,,,0.00,,2013-01-24 06:12:00,
2013-01-24 01:22:00,57.0,54.0,30.25,North,0,0.0,0.0,91,0.00,,,0.00,,2013-01-24 06:22:00,
2013-01-24 01:32:00,57.0,54.0,30.25,NNW,339,1.0,2.0,91,0.00,,,0.00,,2013-01-24 06:32:00,
2013-01-24 01:42:00,57.0,54.0,30.25,NNW,339,1.0,2.0,91,0.00,,,0.00,,2013-01-24 06:42:00,
2013-01-24 01:52:00,57.0,55.0,30.25,West,270,1.0,3.0,92,0.00,,,0.00,,2013-01-24 06:52:00,
2013-01-24 02:03:00,58.0,55.0,30.25,NNE,31,0.0,0.0,91,0.00,,,0.00,,2013-01-24 07:03:00,
2013-01-24 02:12:00,58.0,55.0,30.25,NNE,31,0.0,0.0,91,0.00,,,0.00,,2013-01-24 07:12:00,
2013-01-24 02:23:00,58.0,55.0,30.24,WNW,303,0.0,2.0,90,0.00,,,0.00,,2013-01-24 07:23:00,
2013-01-24 02:33:00,59.0,56.0,30.24,West,279,2.0,3.0,89,0.00,,,0.00,,2013-01-24 07:33:00,
2013-01-24 02:43:00,59.0,56.0,30.24,West,279,2.0,3.0,89,0.00,,,0.00,,2013-01-24 07:43:00,
2013-01-24 02:53:00,59.0,56.0,30.25,SSW,209,1.0,3.0,89,0.00,,,0.00,,2013-01-24 07:53:00,
2013-01-24 03:02:00,59.0,55.0,30.25,North,3,2.0,5.0,87,0.00,,,0.00,,2013-01-24 08:02:00,
2013-01-24 03:12:00,59.0,55.0,30.25,North,3,2.0,5.0,87,0.00,,,0.00,,2013-01-24 08:12:00,
2013-01-24 03:23:00,58.0,54.0,30.24,NNW,328,3.0,6.0,87,0.00,,,0.00,,2013-01-24 08:23:00,
2013-01-24 03:33:00,58.0,54.0,30.23,NNE,23,2.0,3.0,87,0.00,,,0.00,,2013-01-24 08:33:00,
2013-01-24 03:43:00,58.0,54.0,30.23,NNE,23,2.0,3.0,87,0.00,,,0.00,,2013-01-24 08:43:00,
2013-01-24 03:53:00,58.0,54.0,30.23,NW,311,0.0,1.0,87,0.00,,,0.00,,2013-01-24 08:53:00,
2013-01-24 04:03:00,58.0,54.0,30.23,East,86,1.0,3.0,88,0.00,,,0.00,,2013-01-24 09:03:00,
2013-01-24 04:13:00,58.0,54.0,30.23,East,86,1.0,3.0,88,0.00,,,0.00,,2013-01-24 09:13:00,
2013-01-24 04:23:00,58.0,54.0,30.22,NNW,343,1.0,3.0,88,0.00,,,0.00,,2013-01-24 09:23:00,
2013-01-24 04:33:00,58.0,54.0,30.22,SSW,202,0.0,0.0,88,0.00,,,0.00,,2013-01-24 09:33:00,
2013-01-24 04:43:00,58.0,54.0,30.22,SSW,202,0.0,0.0,88,0.00,,,0.00,,2013-01-24 09:43:00,
2013-01-24 04:53:00,57.0,54.0,30.22,NNE,22,0.0,0.0,90,0.00,,,0.00,,2013-01-24 09:53:00,
2013-01-24 05:03:00,56.0,53.0,30.22,NW,304,0.0,0.0,91,0.00,,,0.00,,2013-01-24 10:03:00,
2013-01-24 05:12:00,56.0,53.0,30.22,NW,304,0.0,0.0,91,0.00,,,0.00,,2013-01-24 10:12:00,
2013-01-24 05:23:00,56.0,54.0,30.22,WSW,248,0.0,0.0,92,0.00,,,0.00,,2013-01-24 10:23:00,
2013-01-24 05:33:00,57.0,54.0,30.22,NNE,30,2.0,3.0,91,0.00,,,0.00,,2013-01-24 10:33:00,
2013-01-24 05:43:00,57.0,54.0,30.22,NNE,30,2.0,3.0,91,0.00,,,0.00,,2013-01-24 10:43:00,
2013-01-24 05:53:00,58.0,54.0,30.23,NNW,348,2.0,3.0,88,0.00,,,0.00,,2013-01-24 10:53:00,
2013-01-24 06:03:00,59.0,54.0,30.23,NNW,338,2.0,5.0,84,0.00,,,0.00,,2013-01-24 11:03:00,
2013-01-24 06:12:00,59.0,54.0,30.23,NNW,338,2.0,5.0,84,0.00,,,0.00,,2013-01-24 11:12:00,
2013-01-24 06:23:00,59.0,54.0,30.23,NNW,340,1.0,3.0,83,0.00,,,0.00,,2013-01-24 11:23:00,
2013-01-24 06:33:00,58.0,53.0,30.24,WNW,301,1.0,3.0,83,0.00,,,0.00,,2013-01-24 11:33:00,
2013-01-24 06:43:00,58.0,53.0,30.24,WNW,301,1.0,3.0,83,0.00,,,0.00,,2013-01-24 11:43:00,
2013-01-24 06:53:00,58.0,53.0,30.24,NNW,343,0.0,2.0,83,0.00,,,0.00,,2013-01-24 11:53:00,
2013-01-24 07:03:00,58.0,53.0,30.24,NNW,341,1.0,5.0,83,0.00,,,0.00,,2013-01-24 12:03:00,
2013-01-24 07:12:00,58.0,53.0,30.24,NNW,341,1.0,5.0,83,0.00,,,0.00,,2013-01-24 12:12:00,
2013-01-24 07:23:00,58.0,52.0,30.25,NNW,343,2.0,3.0,81,0.00,,,0.00,,2013-01-24 12:23:00,
2013-01-24 07:33:00,58.0,52.0,30.25,North,355,2.0,3.0,79,0.00,,,0.00,,2013-01-24 12:33:00,
2013-01-24 07:43:00,58.0,52.0,30.25,North,355,2.0,3.0,79,0.00,,,0.00,,2013-01-24 12:43:00,
2013-01-24 07:53:00,58.0,50.0,30.26,NNW,335,3.0,6.0,76,0.00,,,0.00,,2013-01-24 12:53:00,
2013-01-24 08:03:00,60.0,51.0,30.27,NW,326,4.0,7.0,71,0.00,,,0.00,,2013-01-24 13:03:00,
2013-01-24 08:13:00,60.0,51.0,30.27,NW,326,4.0,7.0,71,0.00,,,0.00,,2013-01-24 13:13:00,
2013-01-24 08:23:00,61.0,49.0,30.27,North,6,3.0,6.0,65,0.00,,,0.00,,2013-01-24 13:23:00,
2013-01-24 08:33:00,63.0,48.0,30.28,NNW,328,2.0,5.0,57,0.00,,,0.00,,2013-01-24 13:33:00,
2013-01-24 08:43:00,63.0,48.0,30.28,NNW,328,2.0,5.0,57,0.00,,,0.00,,2013-01-24 13:43:00,
2013-01-24 08:53:00,64.0,46.0,30.27,NNW,341,3.0,7.0,52,0.00,,,0.00,,2013-01-24 13:53:00,
2013-01-24 09:00:00,67.0,44.0,30.28,North,359,5.0,7.0,43,0.00,,,0.00,,2013-01-24 14:00:00,
2013-01-24 09:03:00,65.0,45.0,30.27,ENE,58,4.0,6.0,48,0.00,,,0.00,,2013-01-24 14:03:00,
2013-01-24 09:12:00,65.0,45.0,30.27,ENE,58,4.0,6.0,48,0.00,,,0.00,,2013-01-24 14:12:00,
2013-01-24 09:23:00,67.0,44.0,30.28,North,359,5.0,7.0,43,0.00,,,0.00,,2013-01-24 14:23:00,
2013-01-24 09:33:00,67.0,44.0,30.28,North,359,5.0,7.0,43,0.00,,,0.00,,2013-01-24 14:33:00,
2013-01-24 09:43:00,67.0,44.0,30.28,North,359,5.0,7.0,43,0.00,,,0.00,,2013-01-24 14:43:00,
2013-01-24 09:54:00,67.0,44.0,30.28,North,359,5.0,7.0,43,0.00,,,0.00,,2013-01-24 14:54:00,
2013-01-24 12:03:00,76.0,52.0,30.28,NNW,327,3.0,7.0,43,0.00,,,0.00,,2013-01-24 17:03:00,
2013-01-24 12:12:00,76.0,52.0,30.28,NNW,327,3.0,7.0,43,0.00,,,0.00,,2013-01-24 17:12:00,
2013-01-24 12:22:00,77.0,53.0,30.28,WNW,292,3.0,6.0,43,0.00,,,0.00,,2013-01-24 17:22:00,
2013-01-24 12:32:00,77.0,52.0,30.27,NNE,15,3.0,5.0,42,0.00,,,0.00,,2013-01-24 17:32:00,
2013-01-24 12:42:00,77.0,52.0,30.27,NNE,15,3.0,5.0,42,0.00,,,0.00,,2013-01-24 17:42:00,
2013-01-24 12:52:00,76.0,52.0,30.26,East,88,5.0,7.0,43,0.00,,,0.00,,2013-01-24 17:52:00,
2013-01-24 13:02:00,77.0,53.0,30.25,NNW,328,6.0,6.0,43,0.00,,,0.00,,2013-01-24 18:02:00,
2013-01-24 13:12:00,77.0,53.0,30.25,North,3,5.0,7.0,44,0.00,,,0.00,,2013-01-24 18:12:00,
2013-01-24 13:23:00,77.0,53.0,30.25,North,3,5.0,7.0,44,0.00,,,0.00,,2013-01-24 18:23:00,
2013-01-24 13:33:00,76.0,54.0,30.23,NNW,328,7.0,10.0,46,0.00,,,0.00,,2013-01-24 18:33:00,
2013-01-24 13:42:00,76.0,54.0,30.23,NNW,328,7.0,10.0,46,0.00,,,0.00,,2013-01-24 18:42:00,
2013-01-24 13:53:00,77.0,54.0,30.24,NNE,33,4.0,10.0,45,0.00,,,0.00,,2013-01-24 18:53:00,
2013-01-24 14:02:00,77.0,55.0,30.23,North,0,6.0,8.0,46,0.00,,,0.00,,2013-01-24 19:02:00,
2013-01-24 14:12:00,76.0,54.0,30.22,East,88,6.0,10.0,46,0.00,,,0.00,,2013-01-24 19:12:00,
2013-01-24 14:22:00,76.0,54.0,30.22,East,88,6.0,10.0,46,0.00,,,0.00,,2013-01-24 19:22:00,
2013-01-24 14:33:00,76.0,53.0,30.21,NNE,32,6.0,10.0,45,0.00,,,0.00,,2013-01-24 19:33:00,
2013-01-24 14:42:00,76.0,54.0,30.21,NNE,31,6.0,9.0,46,0.00,,,0.00,,2013-01-24 19:42:00,
2013-01-24 14:53:00,76.0,54.0,30.21,NNE,31,6.0,9.0,46,0.00,,,0.00,,2013-01-24 19:53:00,
2013-01-24 15:02:00,77.0,55.0,30.21,ESE,122,6.0,9.0,46,0.00,,,0.00,,2013-01-24 20:02:00,
2013-01-24 15:11:00,75.0,54.0,30.20,ESE,113,3.0,7.0,48,0.00,,,0.00,,2013-01-24 20:11:00,
2013-01-24 15:22:00,75.0,54.0,30.20,ESE,113,3.0,7.0,48,0.00,,,0.00,,2013-01-24 20:22:00,
2013-01-24 15:32:00,76.0,55.0,30.20,South,181,5.0,8.0,48,0.00,,,0.00,,2013-01-24 20:32:00,
2013-01-24 15:42:00,76.0,55.0,30.20,South,181,5.0,8.0,48,0.00,,,0.00,,2013-01-24 20:42:00,
2013-01-24 15:52:00,75.0,55.0,30.20,ENE,62,3.0,8.0,49,0.00,,,0.00,,2013-01-24 20:52:00,
2013-01-24 16:02:00,75.0,55.0,30.21,NE,46,5.0,8.0,50,0.00,,,0.00,,2013-01-24 21:02:00,
2013-01-24 16:12:00,75.0,55.0,30.21,NE,46,5.0,8.0,50,0.00,,,0.00,,2013-01-24 21:12:00,
2013-01-24 16:22:00,74.0,54.0,30.21,NNE,28,7.0,10.0,50,0.00,,,0.00,,2013-01-24 21:22:00,
2013-01-24 16:33:00,74.0,54.0,30.21,NE,34,6.0,7.0,50,0.00,,,0.00,,2013-01-24 21:33:00,
2013-01-24 16:43:00,74.0,54.0,30.21,NE,34,6.0,7.0,50,0.00,,,0.00,,2013-01-24 21:43:00,
2013-01-24 16:53:00,73.0,53.0,30.22,WNW,302,5.0,7.0,50,0.00,,,0.00,,2013-01-24 21:53:00,
2013-01-24 17:03:00,73.0,53.0,30.22,NNE,21,5.0,10.0,49,0.00,,,0.00,,2013-01-24 22:03:00,
2013-01-24 17:12:00,73.0,53.0,30.22,NNE,21,5.0,10.0,49,0.00,,,0.00,,2013-01-24 22:12:00,
2013-01-24 17:22:00,72.0,51.0,30.22,NNE,21,4.0,7.0,48,0.00,,,0.00,,2013-01-24 22:22:00,
2013-01-24 17:32:00,71.0,49.0,30.23,NNE,31,4.0,7.0,45,0.00,,,0.00,,2013-01-24 22:32:00,
2013-01-24 17:42:00,71.0,49.0,30.23,NNE,31,4.0,7.0,45,0.00,,,0.00,,2013-01-24 22:42:00,
2013-01-24 17:53:00,72.0,51.0,30.23,West,263,3.0,8.0,47,0.00,,,0.00,,2013-01-24 22:53:00,
2013-01-24 18:03:00,69.0,51.0,30.24,NE,52,4.0,7.0,52,0.00,,,0.00,,2013-01-24 23:03:00,
2013-01-24 18:12:00,69.0,51.0,30.24,NE,52,4.0,7.0,52,0.00,,,0.00,,2013-01-24 23:12:00,
2013-01-24 18:22:00,68.0,52.0,30.23,NE,39,5.0,7.0,57,0.00,,,0.00,,2013-01-24 23:22:00,
2013-01-24 18:32:00,67.0,52.0,30.23,North,356,3.0,6.0,58,0.00,,,0.00,,2013-01-24 23:32:00,
2013-01-24 18:42:00,67.0,52.0,30.23,North,356,3.0,6.0,58,0.00,,,0.00,,2013-01-24 23:42:00,
2013-01-24 18:52:00,67.0,52.0,30.23,NW,318,2.0,5.0,58,0.00,,,0.00,,2013-01-24 23:52:00,
2013-01-24 19:02:00,66.0,53.0,30.24,NE,46,3.0,5.0,62,0.00,,,0.00,,2013-01-25 00:02:00,
2013-01-24 19:12:00,66.0,53.0,30.24,NE,46,3.0,5.0,62,0.00,,,0.00,,2013-01-25 00:12:00,
2013-01-24 19:22:00,66.0,53.0,30.24,NNE,25,4.0,6.0,63,0.00,,,0.00,,2013-01-25 00:22:00,
2013-01-24 19:32:00,66.0,53.0,30.24,NE,34,2.0,3.0,63,0.00,,,0.00,,2013-01-25 00:32:00,
2013-01-24 19:42:00,66.0,53.0,30.24,NE,34,2.0,3.0,63,0.00,,,0.00,,2013-01-25 00:42:00,
2013-01-24 19:53:00,66.0,53.0,30.24,North,9,2.0,5.0,62,0.00,,,0.00,,2013-01-25 00:53:00,
2013-01-24 20:02:00,65.0,53.0,30.24,NNW,339,0.0,0.0,65,0.00,,,0.00,,2013-01-25 01:02:00,
2013-01-24 20:12:00,65.0,53.0,30.24,NNW,339,0.0,0.0,65,0.00,,,0.00,,2013-01-25 01:12:00,
2013-01-24 20:22:00,64.0,53.0,30.25,NNW,345,0.0,0.0,67,0.00,,,0.00,,2013-01-25 01:22:00,
2013-01-24 20:32:00,63.0,53.0,30.25,NNW,338,0.0,1.0,70,0.00,,,0.00,,2013-01-25 01:32:00,
2013-01-24 20:42:00,63.0,53.0,30.25,NNW,338,0.0,1.0,70,0.00,,,0.00,,2013-01-25 01:42:00,
2013-01-24 20:52:00,62.0,52.0,30.26,North,10,0.0,0.0,71,0.00,,,0.00,,2013-01-25 01:52:00,
2013-01-24 21:02:00,62.0,53.0,30.26,NW,316,0.0,1.0,72,0.00,,,0.00,,2013-01-25 02:02:00,
2013-01-24 21:11:00,62.0,53.0,30.26,NW,316,0.0,1.0,72,0.00,,,0.00,,2013-01-25 02:11:00,
2013-01-24 21:22:00,61.0,52.0,30.26,ENE,68,0.0,0.0,73,0.00,,,0.00,,2013-01-25 02:22:00,
2013-01-24 21:32:00,60.0,52.0,30.27,West,270,0.0,0.0,76,0.00,,,0.00,,2013-01-25 02:32:00,
2013-01-24 21:42:00,60.0,53.0,30.27,SSW,203,0.0,0.0,78,0.00,,,0.00,,2013-01-25 02:42:00,
2013-01-24 21:53:00,60.0,53.0,30.27,SSW,203,0.0,0.0,78,0.00,,,0.00,,2013-01-25 02:53:00,
2013-01-24 22:02:00,59.0,53.0,30.27,NW,305,0.0,0.0,81,0.00,,,0.00,,2013-01-25 03:02:00,
2013-01-24 22:12:00,58.0,53.0,30.27,NW,316,0.0,0.0,82,0.00,,,0.00,,2013-01-25 03:12:00,
2013-01-24 22:22:00,58.0,53.0,30.27,NW,316,0.0,0.0,82,0.00,,,0.00,,2013-01-25 03:22:00,
2013-01-24 22:33:00,58.0,53.0,30.27,NW,326,0.0,0.0,83,0.00,,,0.00,,2013-01-25 03:33:00,
2013-01-24 22:42:00,58.0,53.0,30.27,NW,326,0.0,0.0,83,0.00,,,0.00,,2013-01-25 03:42:00,
2013-01-24 22:53:00,58.0,53.0,30.27,West,270,0.0,0.0,83,0.00,,,0.00,,2013-01-25 03:53:00,
2013-01-24 23:02:00,58.0,53.0,30.27,WNW,292,0.0,0.0,84,0.00,,,0.00,,2013-01-25 04:02:00,
2013-01-24 23:12:00,57.0,53.0,30.27,West,270,0.0,0.0,86,0.00,,,0.00,,2013-01-25 04:12:00,
2013-01-24 23:22:00,57.0,53.0,30.27,West,270,0.0,0.0,86,0.00,,,0.00,,2013-01-25 04:22:00,
2013-01-24 23:32:00,56.0,52.0,30.26,NNW,342,0.0,0.0,87,0.00,,,0.00,,2013-01-25 04:32:00,
2013-01-24 23:42:00,56.0,52.0,30.26,NNW,342,0.0,0.0,87,0.00,,,0.00,,2013-01-25 04:42:00,
2013-01-24 23:52:00,56.0,52.0,30.26,NW,315,0.0,0.0,88,0.00,,,0.00,,2013-01-25 04:52:00,